sensor_id;sensor_type;location;lat;lon;timestamp;temperature;humidity
3262;DHT22;1643;47.746;9.000;2023-08-12T00:00:20;21.40;99.90
3262;DHT22;1643;47.746;9.000;2023-08-12T00:02:46;21.40;99.90
3262;DHT22;1643;47.746;9.000;2023-08-12T00:05:13;21.40;99.90
3262;DHT22;1643;47.746;9.000;2023-08-12T00:07:40;21.30;99.90
3262;DHT22;1643;47.746;9.000;2023-08-12T00:10:10;21.30;99.90
3262;DHT22;1643;47.746;9.000;2023-08-12T00:12:37;21.30;99.90
3262;DHT22;1643;47.746;9.000;2023-08-12T00:15:03;21.30;99.90
3262;DHT22;1643;47.746;9.000;2023-08-12T00:17:30;21.30;99.90
3262;DHT22;1643;47.746;9.000;2023-08-12T00:19:56;21.30;99.90
3262;DHT22;1643;47.746;9.000;2023-08-12T00:22:22;21.20;99.90
3262;DHT22;1643;47.746;9.000;2023-08-12T00:24:48;21.10;99.90
3262;DHT22;1643;47.746;9.000;2023-08-12T00:27:13;21.10;99.90
3262;DHT22;1643;47.746;9.000;2023-08-12T00:29:39;21.10;99.90
3262;DHT22;1643;47.746;9.000;2023-08-12T00:32:05;21.10;99.90
3262;DHT22;1643;47.746;9.000;2023-08-12T00:34:31;21.10;99.90
3262;DHT22;1643;47.746;9.000;2023-08-12T00:36:56;21.00;99.90
3262;DHT22;1643;47.746;9.000;2023-08-12T00:39:22;21.00;99.90
3262;DHT22;1643;47.746;9.000;2023-08-12T00:41:48;21.00;99.90
3262;DHT22;1643;47.746;9.000;2023-08-12T00:44:14;21.00;99.90
3262;DHT22;1643;47.746;9.000;2023-08-12T00:46:40;21.00;99.90
3262;DHT22;1643;47.746;9.000;2023-08-12T00:49:07;21.00;99.90
3262;DHT22;1643;47.746;9.000;2023-08-12T00:51:34;21.00;99.90
3262;DHT22;1643;47.746;9.000;2023-08-12T00:54:02;21.00;99.90
3262;DHT22;1643;47.746;9.000;2023-08-12T00:56:31;20.90;99.90
3262;DHT22;1643;47.746;9.000;2023-08-12T00:58:58;20.80;99.90
3262;DHT22;1643;47.746;9.000;2023-08-12T01:01:25;20.80;99.90
3262;DHT22;1643;47.746;9.000;2023-08-12T01:03:51;20.80;99.90
3262;DHT22;1643;47.746;9.000;2023-08-12T01:06:17;20.80;99.90
3262;DHT22;1643;47.746;9.000;2023-08-12T01:08:43;20.80;99.90
3262;DHT22;1643;47.746;9.000;2023-08-12T01:11:16;20.80;99.90
3262;DHT22;1643;47.746;9.000;2023-08-12T01:13:49;20.80;99.90
3262;DHT22;1643;47.746;9.000;2023-08-12T01:16:18;20.80;99.90
3262;DHT22;1643;47.746;9.000;2023-08-12T01:18:44;20.70;99.90
3262;DHT22;1643;47.746;9.000;2023-08-12T01:21:15;20.70;99.90
3262;DHT22;1643;47.746;9.000;2023-08-12T01:23:42;20.70;99.90
3262;DHT22;1643;47.746;9.000;2023-08-12T01:26:08;20.60;99.90
3262;DHT22;1643;47.746;9.000;2023-08-12T01:28:34;20.50;99.90
3262;DHT22;1643;47.746;9.000;2023-08-12T01:31:16;20.50;99.90
3262;DHT22;1643;47.746;9.000;2023-08-12T01:36:19;20.50;99.90
3262;DHT22;1643;47.746;9.000;2023-08-12T01:38:46;20.60;99.90
3262;DHT22;1643;47.746;9.000;2023-08-12T01:41:13;20.50;99.90
3262;DHT22;1643;47.746;9.000;2023-08-12T01:43:40;20.50;99.90
3262;DHT22;1643;47.746;9.000;2023-08-12T01:46:06;20.50;99.90
3262;DHT22;1643;47.746;9.000;2023-08-12T01:48:32;20.50;99.90
3262;DHT22;1643;47.746;9.000;2023-08-12T01:50:58;20.40;99.90
3262;DHT22;1643;47.746;9.000;2023-08-12T01:53:23;20.40;99.90
3262;DHT22;1643;47.746;9.000;2023-08-12T01:55:50;20.40;99.90
3262;DHT22;1643;47.746;9.000;2023-08-12T01:58:16;20.40;99.90
3262;DHT22;1643;47.746;9.000;2023-08-12T02:00:42;20.40;99.90
3262;DHT22;1643;47.746;9.000;2023-08-12T02:03:07;20.40;99.90
3262;DHT22;1643;47.746;9.000;2023-08-12T02:05:33;20.30;99.90
3262;DHT22;1643;47.746;9.000;2023-08-12T02:07:59;20.30;99.90
3262;DHT22;1643;47.746;9.000;2023-08-12T02:10:25;20.30;99.90
3262;DHT22;1643;47.746;9.000;2023-08-12T02:12:50;20.30;99.90
3262;DHT22;1643;47.746;9.000;2023-08-12T02:15:16;20.40;99.90
3262;DHT22;1643;47.746;9.000;2023-08-12T02:17:41;20.40;99.90
3262;DHT22;1643;47.746;9.000;2023-08-12T02:20:07;20.40;99.90
3262;DHT22;1643;47.746;9.000;2023-08-12T02:22:33;20.40;99.90
3262;DHT22;1643;47.746;9.000;2023-08-12T02:24:59;20.30;99.90
3262;DHT22;1643;47.746;9.000;2023-08-12T02:27:25;20.30;99.90
3262;DHT22;1643;47.746;9.000;2023-08-12T02:29:51;20.30;99.90
3262;DHT22;1643;47.746;9.000;2023-08-12T02:32:16;20.30;99.90
3262;DHT22;1643;47.746;9.000;2023-08-12T02:34:42;20.30;99.90
3262;DHT22;1643;47.746;9.000;2023-08-12T02:37:07;20.40;99.90
3262;DHT22;1643;47.746;9.000;2023-08-12T02:39:33;20.40;99.90
3262;DHT22;1643;47.746;9.000;2023-08-12T02:41:59;20.40;99.90
3262;DHT22;1643;47.746;9.000;2023-08-12T02:44:24;20.40;99.90
3262;DHT22;1643;47.746;9.000;2023-08-12T02:46:50;20.50;99.90
3262;DHT22;1643;47.746;9.000;2023-08-12T02:49:16;20.50;99.90
3262;DHT22;1643;47.746;9.000;2023-08-12T02:51:41;20.50;99.90
3262;DHT22;1643;47.746;9.000;2023-08-12T02:54:07;20.50;99.90
3262;DHT22;1643;47.746;9.000;2023-08-12T02:56:32;20.50;99.90
3262;DHT22;1643;47.746;9.000;2023-08-12T02:58:58;20.50;99.90
3262;DHT22;1643;47.746;9.000;2023-08-12T03:01:24;20.50;99.90
3262;DHT22;1643;47.746;9.000;2023-08-12T03:03:50;20.50;99.90
3262;DHT22;1643;47.746;9.000;2023-08-12T03:06:16;20.50;99.90
3262;DHT22;1643;47.746;9.000;2023-08-12T03:08:41;20.50;99.90
3262;DHT22;1643;47.746;9.000;2023-08-12T03:11:07;20.40;99.90
3262;DHT22;1643;47.746;9.000;2023-08-12T03:13:33;20.40;99.90
3262;DHT22;1643;47.746;9.000;2023-08-12T03:15:58;20.40;99.90
3262;DHT22;1643;47.746;9.000;2023-08-12T03:18:24;20.40;99.90
3262;DHT22;1643;47.746;9.000;2023-08-12T03:20:49;20.40;99.90
3262;DHT22;1643;47.746;9.000;2023-08-12T03:23:15;20.30;99.90
3262;DHT22;1643;47.746;9.000;2023-08-12T03:25:41;20.30;99.90
3262;DHT22;1643;47.746;9.000;2023-08-12T03:28:06;20.30;99.90
3262;DHT22;1643;47.746;9.000;2023-08-12T03:30:32;20.30;99.90
3262;DHT22;1643;47.746;9.000;2023-08-12T03:32:58;20.30;99.90
3262;DHT22;1643;47.746;9.000;2023-08-12T03:35:23;20.30;99.90
3262;DHT22;1643;47.746;9.000;2023-08-12T03:37:49;20.40;99.90
3262;DHT22;1643;47.746;9.000;2023-08-12T03:40:16;20.40;99.90
3262;DHT22;1643;47.746;9.000;2023-08-12T03:42:42;20.40;99.90
3262;DHT22;1643;47.746;9.000;2023-08-12T03:45:08;20.30;99.90
3262;DHT22;1643;47.746;9.000;2023-08-12T03:47:34;20.40;99.90
3262;DHT22;1643;47.746;9.000;2023-08-12T03:49:59;20.40;99.90
3262;DHT22;1643;47.746;9.000;2023-08-12T03:52:25;20.40;99.90
3262;DHT22;1643;47.746;9.000;2023-08-12T03:54:50;20.40;99.90
3262;DHT22;1643;47.746;9.000;2023-08-12T03:57:18;20.40;99.90
3262;DHT22;1643;47.746;9.000;2023-08-12T03:59:44;20.40;99.90
3262;DHT22;1643;47.746;9.000;2023-08-12T04:02:09;20.40;99.90
3262;DHT22;1643;47.746;9.000;2023-08-12T04:04:35;20.40;99.90
3262;DHT22;1643;47.746;9.000;2023-08-12T04:07:00;20.40;99.90
3262;DHT22;1643;47.746;9.000;2023-08-12T04:09:26;20.40;99.90
3262;DHT22;1643;47.746;9.000;2023-08-12T04:11:51;20.40;99.90
3262;DHT22;1643;47.746;9.000;2023-08-12T04:14:17;20.30;99.90
3262;DHT22;1643;47.746;9.000;2023-08-12T04:16:43;20.40;99.90
3262;DHT22;1643;47.746;9.000;2023-08-12T04:19:08;20.40;99.90
3262;DHT22;1643;47.746;9.000;2023-08-12T04:21:34;20.40;99.90
3262;DHT22;1643;47.746;9.000;2023-08-12T04:24:00;20.40;99.90
3262;DHT22;1643;47.746;9.000;2023-08-12T04:26:25;20.40;99.90
3262;DHT22;1643;47.746;9.000;2023-08-12T04:28:51;20.40;99.90
3262;DHT22;1643;47.746;9.000;2023-08-12T04:31:17;20.30;99.90
3262;DHT22;1643;47.746;9.000;2023-08-12T04:33:42;20.40;99.90
3262;DHT22;1643;47.746;9.000;2023-08-12T04:36:08;20.30;99.90
3262;DHT22;1643;47.746;9.000;2023-08-12T04:38:33;20.40;99.90
3262;DHT22;1643;47.746;9.000;2023-08-12T04:41:00;20.40;99.90
3262;DHT22;1643;47.746;9.000;2023-08-12T04:43:26;20.40;99.90
3262;DHT22;1643;47.746;9.000;2023-08-12T04:45:52;20.40;99.90
3262;DHT22;1643;47.746;9.000;2023-08-12T04:48:18;20.40;99.90
3262;DHT22;1643;47.746;9.000;2023-08-12T04:50:44;20.40;99.90
3262;DHT22;1643;47.746;9.000;2023-08-12T04:53:09;20.40;99.90
3262;DHT22;1643;47.746;9.000;2023-08-12T04:55:35;20.40;99.90
3262;DHT22;1643;47.746;9.000;2023-08-12T04:58:02;20.40;99.90
3262;DHT22;1643;47.746;9.000;2023-08-12T05:00:28;20.30;99.90
3262;DHT22;1643;47.746;9.000;2023-08-12T05:02:54;20.40;99.90
3262;DHT22;1643;47.746;9.000;2023-08-12T05:05:20;20.40;99.90
3262;DHT22;1643;47.746;9.000;2023-08-12T05:07:46;20.40;99.90
3262;DHT22;1643;47.746;9.000;2023-08-12T05:10:16;20.40;99.90
3262;DHT22;1643;47.746;9.000;2023-08-12T05:12:43;20.40;99.90
3262;DHT22;1643;47.746;9.000;2023-08-12T05:15:10;20.50;99.90
3262;DHT22;1643;47.746;9.000;2023-08-12T05:17:36;20.50;99.90
3262;DHT22;1643;47.746;9.000;2023-08-12T05:20:01;20.50;99.90
3262;DHT22;1643;47.746;9.000;2023-08-12T05:22:27;20.50;99.90
3262;DHT22;1643;47.746;9.000;2023-08-12T05:24:53;20.50;99.90
3262;DHT22;1643;47.746;9.000;2023-08-12T05:27:18;20.50;99.90
3262;DHT22;1643;47.746;9.000;2023-08-12T05:29:44;20.50;99.90
3262;DHT22;1643;47.746;9.000;2023-08-12T05:32:10;20.50;99.90
3262;DHT22;1643;47.746;9.000;2023-08-12T05:34:35;20.60;99.90
3262;DHT22;1643;47.746;9.000;2023-08-12T05:37:01;20.50;99.90
3262;DHT22;1643;47.746;9.000;2023-08-12T05:39:27;20.50;99.90
3262;DHT22;1643;47.746;9.000;2023-08-12T05:41:52;20.60;99.90
3262;DHT22;1643;47.746;9.000;2023-08-12T05:44:18;20.60;99.90
3262;DHT22;1643;47.746;9.000;2023-08-12T05:46:43;20.60;99.90
3262;DHT22;1643;47.746;9.000;2023-08-12T05:49:09;20.70;99.90
3262;DHT22;1643;47.746;9.000;2023-08-12T05:51:35;20.70;99.90
3262;DHT22;1643;47.746;9.000;2023-08-12T05:54:01;20.70;99.90
3262;DHT22;1643;47.746;9.000;2023-08-12T05:56:26;20.70;99.90
3262;DHT22;1643;47.746;9.000;2023-08-12T05:58:52;20.80;99.90
3262;DHT22;1643;47.746;9.000;2023-08-12T06:01:18;20.80;99.90
3262;DHT22;1643;47.746;9.000;2023-08-12T06:03:44;20.80;99.90
3262;DHT22;1643;47.746;9.000;2023-08-12T06:06:10;20.90;99.90
3262;DHT22;1643;47.746;9.000;2023-08-12T06:08:35;20.90;99.90
3262;DHT22;1643;47.746;9.000;2023-08-12T06:11:01;21.00;99.90
3262;DHT22;1643;47.746;9.000;2023-08-12T06:13:27;21.00;99.90
3262;DHT22;1643;47.746;9.000;2023-08-12T06:15:52;21.00;99.90
3262;DHT22;1643;47.746;9.000;2023-08-12T06:18:18;21.10;99.90
3262;DHT22;1643;47.746;9.000;2023-08-12T06:20:44;21.20;99.90
3262;DHT22;1643;47.746;9.000;2023-08-12T06:23:09;21.20;99.90
3262;DHT22;1643;47.746;9.000;2023-08-12T06:25:35;21.30;99.90
3262;DHT22;1643;47.746;9.000;2023-08-12T06:28:02;21.30;99.90
3262;DHT22;1643;47.746;9.000;2023-08-12T06:30:29;21.40;99.90
3262;DHT22;1643;47.746;9.000;2023-08-12T06:32:55;21.50;99.90
3262;DHT22;1643;47.746;9.000;2023-08-12T06:35:21;21.60;99.90
3262;DHT22;1643;47.746;9.000;2023-08-12T06:37:47;21.60;99.90
3262;DHT22;1643;47.746;9.000;2023-08-12T06:40:12;21.70;99.90
3262;DHT22;1643;47.746;9.000;2023-08-12T06:42:38;21.80;99.90
3262;DHT22;1643;47.746;9.000;2023-08-12T06:45:04;21.80;99.90
3262;DHT22;1643;47.746;9.000;2023-08-12T06:47:30;21.90;99.90
3262;DHT22;1643;47.746;9.000;2023-08-12T06:49:56;22.00;99.90
3262;DHT22;1643;47.746;9.000;2023-08-12T06:52:21;22.00;99.90
3262;DHT22;1643;47.746;9.000;2023-08-12T06:54:47;22.10;99.90
3262;DHT22;1643;47.746;9.000;2023-08-12T06:57:12;22.20;99.90
3262;DHT22;1643;47.746;9.000;2023-08-12T06:59:38;22.30;99.90
3262;DHT22;1643;47.746;9.000;2023-08-12T07:02:04;22.30;99.90
3262;DHT22;1643;47.746;9.000;2023-08-12T07:04:30;22.40;99.90
3262;DHT22;1643;47.746;9.000;2023-08-12T07:06:56;22.50;99.90
3262;DHT22;1643;47.746;9.000;2023-08-12T07:09:22;22.50;99.90
3262;DHT22;1643;47.746;9.000;2023-08-12T07:11:47;22.50;99.90
3262;DHT22;1643;47.746;9.000;2023-08-12T07:14:13;22.60;99.90
3262;DHT22;1643;47.746;9.000;2023-08-12T07:16:39;22.50;99.90
3262;DHT22;1643;47.746;9.000;2023-08-12T07:19:04;22.60;99.90
3262;DHT22;1643;47.746;9.000;2023-08-12T07:21:30;22.60;99.90
3262;DHT22;1643;47.746;9.000;2023-08-12T07:23:56;22.60;99.90
3262;DHT22;1643;47.746;9.000;2023-08-12T07:26:21;22.50;99.90
3262;DHT22;1643;47.746;9.000;2023-08-12T07:28:47;22.50;99.90
3262;DHT22;1643;47.746;9.000;2023-08-12T07:31:13;22.60;99.90
3262;DHT22;1643;47.746;9.000;2023-08-12T07:33:39;22.70;99.90
3262;DHT22;1643;47.746;9.000;2023-08-12T07:36:04;22.80;99.90
3262;DHT22;1643;47.746;9.000;2023-08-12T07:38:30;22.90;99.90
3262;DHT22;1643;47.746;9.000;2023-08-12T07:40:56;23.00;99.90
3262;DHT22;1643;47.746;9.000;2023-08-12T07:43:22;23.10;99.90
3262;DHT22;1643;47.746;9.000;2023-08-12T07:45:51;23.10;99.90
3262;DHT22;1643;47.746;9.000;2023-08-12T07:48:18;23.30;99.90
3262;DHT22;1643;47.746;9.000;2023-08-12T07:50:44;23.30;99.90
3262;DHT22;1643;47.746;9.000;2023-08-12T07:53:10;23.30;99.90
3262;DHT22;1643;47.746;9.000;2023-08-12T07:55:35;23.20;99.90
3262;DHT22;1643;47.746;9.000;2023-08-12T07:58:01;23.10;99.90
3262;DHT22;1643;47.746;9.000;2023-08-12T08:00:27;23.00;99.90
3262;DHT22;1643;47.746;9.000;2023-08-12T08:02:52;23.10;99.90
3262;DHT22;1643;47.746;9.000;2023-08-12T08:05:18;23.20;99.90
3262;DHT22;1643;47.746;9.000;2023-08-12T08:07:43;23.20;99.90
3262;DHT22;1643;47.746;9.000;2023-08-12T08:10:09;23.20;99.90
3262;DHT22;1643;47.746;9.000;2023-08-12T08:12:35;23.20;99.90
3262;DHT22;1643;47.746;9.000;2023-08-12T08:15:01;23.00;99.90
3262;DHT22;1643;47.746;9.000;2023-08-12T08:17:28;23.00;99.90
3262;DHT22;1643;47.746;9.000;2023-08-12T08:19:54;23.00;99.90
3262;DHT22;1643;47.746;9.000;2023-08-12T08:22:20;22.90;99.90
3262;DHT22;1643;47.746;9.000;2023-08-12T08:24:45;22.90;99.90
3262;DHT22;1643;47.746;9.000;2023-08-12T08:27:11;23.00;99.90
3262;DHT22;1643;47.746;9.000;2023-08-12T08:29:38;23.30;99.90
3262;DHT22;1643;47.746;9.000;2023-08-12T08:32:04;23.50;99.90
3262;DHT22;1643;47.746;9.000;2023-08-12T08:34:30;23.60;99.90
3262;DHT22;1643;47.746;9.000;2023-08-12T08:36:55;23.70;99.90
3262;DHT22;1643;47.746;9.000;2023-08-12T08:39:21;23.70;99.90
3262;DHT22;1643;47.746;9.000;2023-08-12T08:41:48;23.70;99.90
3262;DHT22;1643;47.746;9.000;2023-08-12T08:44:15;23.70;99.90
3262;DHT22;1643;47.746;9.000;2023-08-12T08:46:41;23.70;99.90
3262;DHT22;1643;47.746;9.000;2023-08-12T08:49:09;23.70;99.90
3262;DHT22;1643;47.746;9.000;2023-08-12T08:51:35;23.70;99.90
3262;DHT22;1643;47.746;9.000;2023-08-12T08:54:03;23.70;99.90
3262;DHT22;1643;47.746;9.000;2023-08-12T08:56:31;23.80;99.90
3262;DHT22;1643;47.746;9.000;2023-08-12T08:58:58;23.90;99.90
3262;DHT22;1643;47.746;9.000;2023-08-12T09:01:24;23.90;99.90
3262;DHT22;1643;47.746;9.000;2023-08-12T09:03:52;24.10;99.90
3262;DHT22;1643;47.746;9.000;2023-08-12T09:06:21;24.10;99.90
3262;DHT22;1643;47.746;9.000;2023-08-12T09:08:49;24.10;99.90
3262;DHT22;1643;47.746;9.000;2023-08-12T09:11:17;24.20;99.90
3262;DHT22;1643;47.746;9.000;2023-08-12T09:13:43;24.20;99.90
3262;DHT22;1643;47.746;9.000;2023-08-12T09:16:09;24.20;99.90
3262;DHT22;1643;47.746;9.000;2023-08-12T09:18:35;24.10;99.90
3262;DHT22;1643;47.746;9.000;2023-08-12T09:21:02;24.10;99.90
3262;DHT22;1643;47.746;9.000;2023-08-12T09:23:28;24.20;99.90
3262;DHT22;1643;47.746;9.000;2023-08-12T09:25:53;24.10;99.90
3262;DHT22;1643;47.746;9.000;2023-08-12T09:28:19;24.10;99.90
3262;DHT22;1643;47.746;9.000;2023-08-12T09:30:54;24.10;99.90
3262;DHT22;1643;47.746;9.000;2023-08-12T09:33:26;24.20;99.90
3262;DHT22;1643;47.746;9.000;2023-08-12T09:35:52;24.20;99.90
3262;DHT22;1643;47.746;9.000;2023-08-12T09:38:18;24.20;99.90
3262;DHT22;1643;47.746;9.000;2023-08-12T09:40:46;24.40;99.90
3262;DHT22;1643;47.746;9.000;2023-08-12T09:43:13;24.50;99.90
3262;DHT22;1643;47.746;9.000;2023-08-12T09:45:38;24.50;99.90
3262;DHT22;1643;47.746;9.000;2023-08-12T09:48:04;24.70;99.90
3262;DHT22;1643;47.746;9.000;2023-08-12T09:50:31;24.90;99.90
3262;DHT22;1643;47.746;9.000;2023-08-12T09:52:57;24.90;99.90
3262;DHT22;1643;47.746;9.000;2023-08-12T09:55:24;24.80;99.90
3262;DHT22;1643;47.746;9.000;2023-08-12T09:57:54;24.80;99.90
3262;DHT22;1643;47.746;9.000;2023-08-12T10:00:23;24.80;99.90
3262;DHT22;1643;47.746;9.000;2023-08-12T10:02:51;24.90;99.90
3262;DHT22;1643;47.746;9.000;2023-08-12T10:05:37;24.90;99.90
3262;DHT22;1643;47.746;9.000;2023-08-12T10:08:04;24.80;99.90
3262;DHT22;1643;47.746;9.000;2023-08-12T10:10:32;24.80;99.90
3262;DHT22;1643;47.746;9.000;2023-08-12T10:13:00;24.70;99.90
3262;DHT22;1643;47.746;9.000;2023-08-12T10:15:26;24.70;99.90
3262;DHT22;1643;47.746;9.000;2023-08-12T10:17:52;24.70;99.90
3262;DHT22;1643;47.746;9.000;2023-08-12T10:20:23;24.70;99.90
3262;DHT22;1643;47.746;9.000;2023-08-12T10:22:50;24.70;99.90
3262;DHT22;1643;47.746;9.000;2023-08-12T10:25:18;24.70;99.90
3262;DHT22;1643;47.746;9.000;2023-08-12T10:27:44;24.60;99.90
3262;DHT22;1643;47.746;9.000;2023-08-12T10:30:10;24.50;99.90
3262;DHT22;1643;47.746;9.000;2023-08-12T10:32:36;24.60;99.90
3262;DHT22;1643;47.746;9.000;2023-08-12T10:35:02;24.60;99.90
3262;DHT22;1643;47.746;9.000;2023-08-12T10:37:32;24.70;99.90
3262;DHT22;1643;47.746;9.000;2023-08-12T10:39:59;24.80;99.90
3262;DHT22;1643;47.746;9.000;2023-08-12T10:42:47;24.80;99.90
3262;DHT22;1643;47.746;9.000;2023-08-12T10:45:14;24.90;99.90
3262;DHT22;1643;47.746;9.000;2023-08-12T10:47:48;24.80;99.90
3262;DHT22;1643;47.746;9.000;2023-08-12T10:50:22;24.80;99.90
3262;DHT22;1643;47.746;9.000;2023-08-12T10:52:53;24.80;99.90
3262;DHT22;1643;47.746;9.000;2023-08-12T10:55:20;24.80;99.90
3262;DHT22;1643;47.746;9.000;2023-08-12T10:57:46;24.70;99.90
3262;DHT22;1643;47.746;9.000;2023-08-12T11:00:17;24.70;99.90
3262;DHT22;1643;47.746;9.000;2023-08-12T11:02:52;24.70;99.90
3262;DHT22;1643;47.746;9.000;2023-08-12T11:05:19;24.70;99.90
3262;DHT22;1643;47.746;9.000;2023-08-12T11:07:59;24.80;99.90
3262;DHT22;1643;47.746;9.000;2023-08-12T11:10:32;24.80;99.90
3262;DHT22;1643;47.746;9.000;2023-08-12T11:12:58;24.90;99.90
3262;DHT22;1643;47.746;9.000;2023-08-12T11:15:41;24.90;99.90
3262;DHT22;1643;47.746;9.000;2023-08-12T11:18:18;24.90;99.90
3262;DHT22;1643;47.746;9.000;2023-08-12T11:20:44;24.90;99.90
3262;DHT22;1643;47.746;9.000;2023-08-12T11:23:10;24.90;99.90
3262;DHT22;1643;47.746;9.000;2023-08-12T11:25:38;24.90;99.90
3262;DHT22;1643;47.746;9.000;2023-08-12T11:28:05;25.00;99.90
3262;DHT22;1643;47.746;9.000;2023-08-12T11:30:31;25.20;99.90
3262;DHT22;1643;47.746;9.000;2023-08-12T11:32:57;25.50;99.90
3262;DHT22;1643;47.746;9.000;2023-08-12T11:35:24;25.70;99.90
3262;DHT22;1643;47.746;9.000;2023-08-12T11:37:55;26.00;99.90
3262;DHT22;1643;47.746;9.000;2023-08-12T11:40:22;25.80;99.90
3262;DHT22;1643;47.746;9.000;2023-08-12T11:42:49;25.80;99.90
3262;DHT22;1643;47.746;9.000;2023-08-12T11:45:20;25.60;99.90
3262;DHT22;1643;47.746;9.000;2023-08-12T11:47:46;25.40;99.90
3262;DHT22;1643;47.746;9.000;2023-08-12T11:50:19;25.40;99.90
3262;DHT22;1643;47.746;9.000;2023-08-12T11:52:46;25.30;99.90
3262;DHT22;1643;47.746;9.000;2023-08-12T11:55:12;25.20;99.90
3262;DHT22;1643;47.746;9.000;2023-08-12T11:57:41;25.20;99.90
3262;DHT22;1643;47.746;9.000;2023-08-12T12:00:11;25.20;99.90
3262;DHT22;1643;47.746;9.000;2023-08-12T12:03:01;25.20;99.90
3262;DHT22;1643;47.746;9.000;2023-08-12T12:05:28;25.20;99.90
3262;DHT22;1643;47.746;9.000;2023-08-12T12:07:55;25.20;99.90
3262;DHT22;1643;47.746;9.000;2023-08-12T12:10:29;25.20;99.90
3262;DHT22;1643;47.746;9.000;2023-08-12T12:12:56;25.20;99.90
3262;DHT22;1643;47.746;9.000;2023-08-12T12:15:22;25.20;99.90
3262;DHT22;1643;47.746;9.000;2023-08-12T12:17:49;25.30;99.90
3262;DHT22;1643;47.746;9.000;2023-08-12T12:20:15;25.20;99.90
3262;DHT22;1643;47.746;9.000;2023-08-12T12:22:42;25.20;99.90
3262;DHT22;1643;47.746;9.000;2023-08-12T12:25:13;25.20;99.90
3262;DHT22;1643;47.746;9.000;2023-08-12T12:27:39;25.10;99.90
3262;DHT22;1643;47.746;9.000;2023-08-12T12:30:10;25.00;99.90
3262;DHT22;1643;47.746;9.000;2023-08-12T12:32:36;24.90;99.90
3262;DHT22;1643;47.746;9.000;2023-08-12T12:35:02;25.00;99.90
3262;DHT22;1643;47.746;9.000;2023-08-12T12:37:33;24.90;99.90
3262;DHT22;1643;47.746;9.000;2023-08-12T12:39:58;24.90;99.90
3262;DHT22;1643;47.746;9.000;2023-08-12T12:42:24;24.90;99.90
3262;DHT22;1643;47.746;9.000;2023-08-12T12:44:50;25.10;99.90
3262;DHT22;1643;47.746;9.000;2023-08-12T12:47:16;25.20;99.90
3262;DHT22;1643;47.746;9.000;2023-08-12T12:49:42;25.40;99.90
3262;DHT22;1643;47.746;9.000;2023-08-12T12:52:07;25.70;99.90
3262;DHT22;1643;47.746;9.000;2023-08-12T12:54:33;26.10;99.90
3262;DHT22;1643;47.746;9.000;2023-08-12T12:56:59;26.10;99.90
3262;DHT22;1643;47.746;9.000;2023-08-12T12:59:24;26.10;99.90
3262;DHT22;1643;47.746;9.000;2023-08-12T13:01:50;26.10;99.90
3262;DHT22;1643;47.746;9.000;2023-08-12T13:04:16;26.20;99.90
3262;DHT22;1643;47.746;9.000;2023-08-12T13:06:41;26.30;99.90
3262;DHT22;1643;47.746;9.000;2023-08-12T13:09:07;26.40;99.90
3262;DHT22;1643;47.746;9.000;2023-08-12T13:11:33;26.40;99.90
3262;DHT22;1643;47.746;9.000;2023-08-12T13:14:03;26.50;99.90
3262;DHT22;1643;47.746;9.000;2023-08-12T13:16:29;26.40;99.90
3262;DHT22;1643;47.746;9.000;2023-08-12T13:18:55;26.50;99.90
3262;DHT22;1643;47.746;9.000;2023-08-12T13:21:27;26.50;99.90
3262;DHT22;1643;47.746;9.000;2023-08-12T13:23:52;26.60;99.90
3262;DHT22;1643;47.746;9.000;2023-08-12T13:26:20;26.60;99.90
3262;DHT22;1643;47.746;9.000;2023-08-12T13:28:46;26.70;99.90
3262;DHT22;1643;47.746;9.000;2023-08-12T13:31:12;26.80;99.90
3262;DHT22;1643;47.746;9.000;2023-08-12T13:33:37;26.90;99.90
3262;DHT22;1643;47.746;9.000;2023-08-12T13:36:03;27.00;99.90
3262;DHT22;1643;47.746;9.000;2023-08-12T13:38:29;27.10;99.90
3262;DHT22;1643;47.746;9.000;2023-08-12T13:40:55;27.10;99.90
3262;DHT22;1643;47.746;9.000;2023-08-12T13:43:20;27.10;99.90
3262;DHT22;1643;47.746;9.000;2023-08-12T13:45:46;27.10;99.90
3262;DHT22;1643;47.746;9.000;2023-08-12T13:48:12;27.30;99.90
3262;DHT22;1643;47.746;9.000;2023-08-12T13:50:37;27.50;99.90
3262;DHT22;1643;47.746;9.000;2023-08-12T13:53:03;27.70;99.90
3262;DHT22;1643;47.746;9.000;2023-08-12T13:55:29;27.80;99.90
3262;DHT22;1643;47.746;9.000;2023-08-12T13:57:54;27.80;99.90
3262;DHT22;1643;47.746;9.000;2023-08-12T14:00:20;27.90;99.90
3262;DHT22;1643;47.746;9.000;2023-08-12T14:02:45;28.00;99.90
3262;DHT22;1643;47.746;9.000;2023-08-12T14:05:14;28.10;99.90
3262;DHT22;1643;47.746;9.000;2023-08-12T14:07:40;28.10;99.90
3262;DHT22;1643;47.746;9.000;2023-08-12T14:10:06;28.00;99.90
3262;DHT22;1643;47.746;9.000;2023-08-12T14:12:32;28.00;99.90
3262;DHT22;1643;47.746;9.000;2023-08-12T14:14:58;28.00;99.90
3262;DHT22;1643;47.746;9.000;2023-08-12T14:17:24;27.80;99.90
3262;DHT22;1643;47.746;9.000;2023-08-12T14:19:51;27.70;99.90
3262;DHT22;1643;47.746;9.000;2023-08-12T14:22:17;27.50;99.90
3262;DHT22;1643;47.746;9.000;2023-08-12T14:24:43;27.50;99.90
3262;DHT22;1643;47.746;9.000;2023-08-12T14:27:14;27.70;99.90
3262;DHT22;1643;47.746;9.000;2023-08-12T14:29:39;27.60;99.90
3262;DHT22;1643;47.746;9.000;2023-08-12T14:32:05;27.60;99.90
3262;DHT22;1643;47.746;9.000;2023-08-12T14:34:31;27.60;99.90
3262;DHT22;1643;47.746;9.000;2023-08-12T14:36:56;27.70;99.90
3262;DHT22;1643;47.746;9.000;2023-08-12T14:39:22;27.80;99.90
3262;DHT22;1643;47.746;9.000;2023-08-12T14:41:48;28.00;99.90
3262;DHT22;1643;47.746;9.000;2023-08-12T14:44:14;28.10;99.90
3262;DHT22;1643;47.746;9.000;2023-08-12T14:46:41;28.00;99.90
3262;DHT22;1643;47.746;9.000;2023-08-12T14:49:06;27.90;99.90
3262;DHT22;1643;47.746;9.000;2023-08-12T14:51:32;27.90;99.90
3262;DHT22;1643;47.746;9.000;2023-08-12T14:53:58;27.70;99.90
3262;DHT22;1643;47.746;9.000;2023-08-12T14:56:23;27.60;99.90
3262;DHT22;1643;47.746;9.000;2023-08-12T14:58:49;27.50;99.90
3262;DHT22;1643;47.746;9.000;2023-08-12T15:01:14;27.40;99.90
3262;DHT22;1643;47.746;9.000;2023-08-12T15:03:41;27.30;99.90
3262;DHT22;1643;47.746;9.000;2023-08-12T15:06:07;27.20;99.90
3262;DHT22;1643;47.746;9.000;2023-08-12T15:08:33;27.00;99.90
3262;DHT22;1643;47.746;9.000;2023-08-12T15:10:59;26.90;99.90
3262;DHT22;1643;47.746;9.000;2023-08-12T15:13:25;26.90;99.90
3262;DHT22;1643;47.746;9.000;2023-08-12T15:15:51;26.90;99.90
3262;DHT22;1643;47.746;9.000;2023-08-12T15:18:17;26.90;99.90
3262;DHT22;1643;47.746;9.000;2023-08-12T15:20:43;26.80;99.90
3262;DHT22;1643;47.746;9.000;2023-08-12T15:23:09;26.70;99.90
3262;DHT22;1643;47.746;9.000;2023-08-12T15:25:35;26.70;99.90
3262;DHT22;1643;47.746;9.000;2023-08-12T15:28:01;26.70;99.90
3262;DHT22;1643;47.746;9.000;2023-08-12T15:30:28;26.60;99.90
3262;DHT22;1643;47.746;9.000;2023-08-12T15:32:54;26.60;99.90
3262;DHT22;1643;47.746;9.000;2023-08-12T15:35:20;26.60;99.90
3262;DHT22;1643;47.746;9.000;2023-08-12T15:37:45;26.60;99.90
3262;DHT22;1643;47.746;9.000;2023-08-12T15:40:11;26.60;99.90
3262;DHT22;1643;47.746;9.000;2023-08-12T15:42:38;26.50;99.90
3262;DHT22;1643;47.746;9.000;2023-08-12T15:45:04;26.50;99.90
3262;DHT22;1643;47.746;9.000;2023-08-12T15:47:30;26.50;99.90
3262;DHT22;1643;47.746;9.000;2023-08-12T15:49:58;26.50;99.90
3262;DHT22;1643;47.746;9.000;2023-08-12T15:52:24;26.50;99.90
3262;DHT22;1643;47.746;9.000;2023-08-12T15:54:50;26.50;99.90
3262;DHT22;1643;47.746;9.000;2023-08-12T15:57:15;26.50;99.90
3262;DHT22;1643;47.746;9.000;2023-08-12T15:59:41;26.50;99.90